This is the latest recevied weather packets stored in our database for station/object OK1FCB-1. If no packets are shown the sender has not sent any weather packets the latest 10 day(s).
| Time | Temp. | Humidity | Pressure | Rain* | Wind** | Luminosity | Snow |
|---|---|---|---|---|---|---|---|
| 1777460272 | 18.33° C | 27% | 1030.6 hPa | - | - | - | - |
| 1777459378 | 17.78° C | 27% | 1030.7 hPa | - | - | - | - |
| 1777459372 | 17.78° C | 27% | 1030.7 hPa | - | - | - | - |
| 1777458480 | 17.78° C | 29% | 1030.6 hPa | - | - | - | - |
| 1777457582 | 16.67° C | 30% | 1030.6 hPa | - | - | - | - |
| 1777457581 | 16.67° C | 30% | 1030.6 hPa | - | - | - | - |
| 1777455778 | 16.67° C | 30% | 1030.6 hPa | - | - | - | - |
| 1777454886 | 17.22° C | 31% | 1030.6 hPa | - | - | - | - |
| 1777454881 | 17.22° C | 31% | 1030.6 hPa | - | - | - | - |
| 1777453987 | 16.11° C | 33% | 1030.6 hPa | - | - | - | - |
| 1777453981 | 16.11° C | 33% | 1030.6 hPa | - | - | - | - |
| 1777449496 | 16.11° C | 32% | 1030.4 hPa | - | - | - | - |
| 1777449490 | 16.11° C | 32% | 1030.4 hPa | - | - | - | - |
| 1777448597 | 15.56° C | 34% | 1030.3 hPa | - | - | - | - |
| 1777446800 | 14.44° C | 33% | 1030.1 hPa | - | - | - | - |
| 1777445902 | 13.89° C | 35% | 1030.2 hPa | - | - | - | - |
| 1777443199 | 12.22° C | 38% | 1029.9 hPa | - | - | - | - |
| 1777442302 | 11.11° C | 40% | 1029.8 hPa | - | - | - | - |
| 1777438706 | 4.44° C | 55% | 1029.5 hPa | - | - | - | - |
| 1777436900 | -1.11° C | 61% | 1029.4 hPa | - | - | - | - |
| 1777436002 | -1.67° C | 62% | 1029.5 hPa | - | - | - | - |
| 1777431512 | -2.22° C | 61% | 1029.1 hPa | - | - | - | - |
| 1777421642 | 0.56° C | 51% | 1028.6 hPa | - | - | - | - |
| 1777419855 | 1.67° C | 49% | 1028.5 hPa | - | - | - | - |
| 1777418952 | 2.78° C | 46% | 1028.5 hPa | - | - | - | - |
* Rain since midnight (hover to see other rain measurements)
** Current wind speed in m/s (hover to see current wind gust speed)